sensor_id;sensor_type;location;lat;lon;timestamp;temperature;humidity
9544;DHT22;30418;51.45933468;7.33152330;2023-03-31T00:01:14;15.10;62.80
9544;DHT22;30418;51.45933468;7.33152330;2023-03-31T00:03:42;15.10;62.70
9544;DHT22;30418;51.45933468;7.33152330;2023-03-31T00:06:12;15.10;62.80
9544;DHT22;30418;51.45933468;7.33152330;2023-03-31T00:08:46;15.10;62.80
9544;DHT22;30418;51.45933468;7.33152330;2023-03-31T00:11:19;15.00;62.60
9544;DHT22;30418;51.45933468;7.33152330;2023-03-31T00:13:50;15.00;62.50
9544;DHT22;30418;51.45933468;7.33152330;2023-03-31T00:16:19;15.00;62.50
9544;DHT22;30418;51.45933468;7.33152330;2023-03-31T00:18:47;15.00;62.50
9544;DHT22;30418;51.45933468;7.33152330;2023-03-31T00:21:19;15.00;62.60
9544;DHT22;30418;51.45933468;7.33152330;2023-03-31T00:23:52;15.00;62.60
9544;DHT22;30418;51.45933468;7.33152330;2023-03-31T00:26:22;14.90;62.50
9544;DHT22;30418;51.45933468;7.33152330;2023-03-31T00:28:54;15.00;62.60
9544;DHT22;30418;51.45933468;7.33152330;2023-03-31T00:31:23;14.90;62.50
9544;DHT22;30418;51.45933468;7.33152330;2023-03-31T00:33:54;14.90;62.60
9544;DHT22;30418;51.45933468;7.33152330;2023-03-31T00:36:24;14.90;62.60
9544;DHT22;30418;51.45933468;7.33152330;2023-03-31T00:38:55;14.90;62.70
9544;DHT22;30418;51.45933468;7.33152330;2023-03-31T00:41:27;14.90;62.70
9544;DHT22;30418;51.45933468;7.33152330;2023-03-31T00:44:06;14.90;62.70
9544;DHT22;30418;51.45933468;7.33152330;2023-03-31T00:46:48;14.90;62.90
9544;DHT22;30418;51.45933468;7.33152330;2023-03-31T00:49:26;14.80;62.70
9544;DHT22;30418;51.45933468;7.33152330;2023-03-31T00:52:00;14.80;62.50
9544;DHT22;30418;51.45933468;7.33152330;2023-03-31T00:54:32;14.80;62.50
9544;DHT22;30418;51.45933468;7.33152330;2023-03-31T00:57:02;14.80;62.60
9544;DHT22;30418;51.45933468;7.33152330;2023-03-31T00:59:37;14.80;62.70
9544;DHT22;30418;51.45933468;7.33152330;2023-03-31T01:02:08;14.80;62.70
9544;DHT22;30418;51.45933468;7.33152330;2023-03-31T01:04:40;14.80;62.70
9544;DHT22;30418;51.45933468;7.33152330;2023-03-31T01:07:17;14.80;62.80
9544;DHT22;30418;51.45933468;7.33152330;2023-03-31T01:09:50;14.80;62.80
9544;DHT22;30418;51.45933468;7.33152330;2023-03-31T01:12:21;14.80;63.60
9544;DHT22;30418;51.45933468;7.33152330;2023-03-31T01:14:52;14.80;62.80
9544;DHT22;30418;51.45933468;7.33152330;2023-03-31T01:17:22;14.80;62.80
9544;DHT22;30418;51.45933468;7.33152330;2023-03-31T01:20:01;14.80;62.80
9544;DHT22;30418;51.45933468;7.33152330;2023-03-31T01:23:18;14.80;63.80
9544;DHT22;30418;51.45933468;7.33152330;2023-03-31T01:26:20;14.80;63.20
9544;DHT22;30418;51.45933468;7.33152330;2023-03-31T01:29:05;14.80;63.20
9544;DHT22;30418;51.45933468;7.33152330;2023-03-31T01:38:42;14.80;63.80
9544;DHT22;30418;51.45933468;7.33152330;2023-03-31T01:41:54;14.70;63.70
9544;DHT22;30418;51.45933468;7.33152330;2023-03-31T01:44:32;14.80;64.10
9544;DHT22;30418;51.45933468;7.33152330;2023-03-31T01:47:09;14.70;64.00
9544;DHT22;30418;51.45933468;7.33152330;2023-03-31T01:49:51;14.70;64.10
9544;DHT22;30418;51.45933468;7.33152330;2023-03-31T01:52:26;14.70;64.30
9544;DHT22;30418;51.45933468;7.33152330;2023-03-31T01:55:02;14.70;64.30
9544;DHT22;30418;51.45933468;7.33152330;2023-03-31T01:57:38;14.70;64.40
9544;DHT22;30418;51.45933468;7.33152330;2023-03-31T02:00:10;14.70;64.40
9544;DHT22;30418;51.45933468;7.33152330;2023-03-31T02:02:45;14.70;64.40
9544;DHT22;30418;51.45933468;7.33152330;2023-03-31T02:05:17;14.70;64.70
9544;DHT22;30418;51.45933468;7.33152330;2023-03-31T02:07:49;14.70;64.70
9544;DHT22;30418;51.45933468;7.33152330;2023-03-31T02:10:20;14.70;64.70
9544;DHT22;30418;51.45933468;7.33152330;2023-03-31T02:12:52;14.60;64.70
9544;DHT22;30418;51.45933468;7.33152330;2023-03-31T02:15:25;14.60;64.70
9544;DHT22;30418;51.45933468;7.33152330;2023-03-31T02:17:58;14.70;64.90
9544;DHT22;30418;51.45933468;7.33152330;2023-03-31T02:20:29;14.60;64.80
9544;DHT22;30418;51.45933468;7.33152330;2023-03-31T02:23:00;14.70;64.90
9544;DHT22;30418;51.45933468;7.33152330;2023-03-31T02:25:33;14.60;64.90
9544;DHT22;30418;51.45933468;7.33152330;2023-03-31T02:28:08;14.60;65.00
9544;DHT22;30418;51.45933468;7.33152330;2023-03-31T02:30:44;14.60;65.10
9544;DHT22;30418;51.45933468;7.33152330;2023-03-31T02:33:16;14.70;65.20
9544;DHT22;30418;51.45933468;7.33152330;2023-03-31T02:35:45;14.60;65.00
9544;DHT22;30418;51.45933468;7.33152330;2023-03-31T02:38:13;14.60;65.10
9544;DHT22;30418;51.45933468;7.33152330;2023-03-31T02:40:42;14.60;65.20
9544;DHT22;30418;51.45933468;7.33152330;2023-03-31T02:43:12;14.60;65.10
9544;DHT22;30418;51.45933468;7.33152330;2023-03-31T02:45:43;14.60;65.20
9544;DHT22;30418;51.45933468;7.33152330;2023-03-31T02:48:16;14.60;65.40
9544;DHT22;30418;51.45933468;7.33152330;2023-03-31T03:00:59;14.60;66.50
9544;DHT22;30418;51.45933468;7.33152330;2023-03-31T03:03:49;14.50;65.40
9544;DHT22;30418;51.45933468;7.33152330;2023-03-31T03:06:35;14.50;65.40
9544;DHT22;30418;51.45933468;7.33152330;2023-03-31T03:09:26;14.50;65.70
9544;DHT22;30418;51.45933468;7.33152330;2023-03-31T03:12:08;14.60;65.80
9544;DHT22;30418;51.45933468;7.33152330;2023-03-31T03:14:45;14.50;65.80
9544;DHT22;30418;51.45933468;7.33152330;2023-03-31T03:17:19;14.50;65.90
9544;DHT22;30418;51.45933468;7.33152330;2023-03-31T03:19:52;14.50;65.80
9544;DHT22;30418;51.45933468;7.33152330;2023-03-31T03:22:22;14.50;65.80
9544;DHT22;30418;51.45933468;7.33152330;2023-03-31T03:24:50;14.50;65.80
9544;DHT22;30418;51.45933468;7.33152330;2023-03-31T03:27:19;14.50;65.80
9544;DHT22;30418;51.45933468;7.33152330;2023-03-31T03:29:51;14.50;65.80
9544;DHT22;30418;51.45933468;7.33152330;2023-03-31T03:32:20;14.50;65.90
9544;DHT22;30418;51.45933468;7.33152330;2023-03-31T03:34:48;14.50;65.90
9544;DHT22;30418;51.45933468;7.33152330;2023-03-31T03:37:17;14.50;65.90
9544;DHT22;30418;51.45933468;7.33152330;2023-03-31T03:39:45;14.40;65.80
9544;DHT22;30418;51.45933468;7.33152330;2023-03-31T03:42:14;14.50;66.00
9544;DHT22;30418;51.45933468;7.33152330;2023-03-31T03:44:43;14.50;66.10
9544;DHT22;30418;51.45933468;7.33152330;2023-03-31T03:47:13;14.50;66.20
9544;DHT22;30418;51.45933468;7.33152330;2023-03-31T03:49:42;14.50;67.00
9544;DHT22;30418;51.45933468;7.33152330;2023-03-31T03:52:10;14.50;66.20
9544;DHT22;30418;51.45933468;7.33152330;2023-03-31T03:54:39;14.40;66.10
9544;DHT22;30418;51.45933468;7.33152330;2023-03-31T03:57:07;14.50;66.20
9544;DHT22;30418;51.45933468;7.33152330;2023-03-31T03:59:36;14.50;66.20
9544;DHT22;30418;51.45933468;7.33152330;2023-03-31T04:02:05;14.40;66.20
9544;DHT22;30418;51.45933468;7.33152330;2023-03-31T04:04:35;14.40;66.20
9544;DHT22;30418;51.45933468;7.33152330;2023-03-31T04:07:04;14.40;67.10
9544;DHT22;30418;51.45933468;7.33152330;2023-03-31T04:09:33;14.40;66.30
9544;DHT22;30418;51.45933468;7.33152330;2023-03-31T04:12:02;14.40;66.30
9544;DHT22;30418;51.45933468;7.33152330;2023-03-31T04:14:30;14.40;66.30
9544;DHT22;30418;51.45933468;7.33152330;2023-03-31T04:16:59;14.40;66.30
9544;DHT22;30418;51.45933468;7.33152330;2023-03-31T04:19:28;14.40;66.30
9544;DHT22;30418;51.45933468;7.33152330;2023-03-31T04:21:58;14.40;66.30
9544;DHT22;30418;51.45933468;7.33152330;2023-03-31T04:24:28;14.40;66.40
9544;DHT22;30418;51.45933468;7.33152330;2023-03-31T04:26:59;14.40;66.40
9544;DHT22;30418;51.45933468;7.33152330;2023-03-31T04:29:29;14.40;66.50
9544;DHT22;30418;51.45933468;7.33152330;2023-03-31T04:32:00;14.40;66.50
9544;DHT22;30418;51.45933468;7.33152330;2023-03-31T04:34:29;14.40;67.30
9544;DHT22;30418;51.45933468;7.33152330;2023-03-31T04:37:03;14.40;66.50
9544;DHT22;30418;51.45933468;7.33152330;2023-03-31T04:39:32;14.40;66.50
9544;DHT22;30418;51.45933468;7.33152330;2023-03-31T04:42:00;14.40;66.50
9544;DHT22;30418;51.45933468;7.33152330;2023-03-31T04:44:29;14.30;66.40
9544;DHT22;30418;51.45933468;7.33152330;2023-03-31T04:46:58;14.40;66.50
9544;DHT22;30418;51.45933468;7.33152330;2023-03-31T04:49:29;14.30;66.40
9544;DHT22;30418;51.45933468;7.33152330;2023-03-31T04:51:59;14.40;66.50
9544;DHT22;30418;51.45933468;7.33152330;2023-03-31T04:54:29;14.30;66.40
9544;DHT22;30418;51.45933468;7.33152330;2023-03-31T04:56:58;14.30;66.40
9544;DHT22;30418;51.45933468;7.33152330;2023-03-31T04:59:26;14.30;66.50
9544;DHT22;30418;51.45933468;7.33152330;2023-03-31T05:01:55;14.30;66.40
9544;DHT22;30418;51.45933468;7.33152330;2023-03-31T05:04:24;14.30;66.50
9544;DHT22;30418;51.45933468;7.33152330;2023-03-31T05:06:52;14.30;66.50
9544;DHT22;30418;51.45933468;7.33152330;2023-03-31T05:09:21;14.30;66.50
9544;DHT22;30418;51.45933468;7.33152330;2023-03-31T05:11:51;14.20;66.40
9544;DHT22;30418;51.45933468;7.33152330;2023-03-31T05:14:20;14.20;66.50
9544;DHT22;30418;51.45933468;7.33152330;2023-03-31T05:16:49;14.20;66.40
9544;DHT22;30418;51.45933468;7.33152330;2023-03-31T05:19:18;14.20;66.50
9544;DHT22;30418;51.45933468;7.33152330;2023-03-31T05:21:46;14.20;66.60
9544;DHT22;30418;51.45933468;7.33152330;2023-03-31T05:24:14;14.20;66.60
9544;DHT22;30418;51.45933468;7.33152330;2023-03-31T05:26:43;14.20;66.70
9544;DHT22;30418;51.45933468;7.33152330;2023-03-31T05:29:17;14.20;66.70
9544;DHT22;30418;51.45933468;7.33152330;2023-03-31T05:31:46;14.20;66.80
9544;DHT22;30418;51.45933468;7.33152330;2023-03-31T05:34:15;14.20;66.70
9544;DHT22;30418;51.45933468;7.33152330;2023-03-31T05:36:44;14.20;67.70
9544;DHT22;30418;51.45933468;7.33152330;2023-03-31T05:39:13;14.20;67.00
9544;DHT22;30418;51.45933468;7.33152330;2023-03-31T05:41:42;14.20;66.80
9544;DHT22;30418;51.45933468;7.33152330;2023-03-31T05:44:11;14.20;66.80
9544;DHT22;30418;51.45933468;7.33152330;2023-03-31T05:46:41;14.20;66.80
9544;DHT22;30418;51.45933468;7.33152330;2023-03-31T05:49:10;14.10;66.70
9544;DHT22;30418;51.45933468;7.33152330;2023-03-31T05:51:41;14.10;66.60
9544;DHT22;30418;51.45933468;7.33152330;2023-03-31T05:54:10;14.10;66.60
9544;DHT22;30418;51.45933468;7.33152330;2023-03-31T05:56:38;14.10;66.70
9544;DHT22;30418;51.45933468;7.33152330;2023-03-31T05:59:07;14.10;66.70
9544;DHT22;30418;51.45933468;7.33152330;2023-03-31T06:01:36;14.10;66.80
9544;DHT22;30418;51.45933468;7.33152330;2023-03-31T06:04:06;14.10;66.80
9544;DHT22;30418;51.45933468;7.33152330;2023-03-31T06:06:35;14.10;66.90
9544;DHT22;30418;51.45933468;7.33152330;2023-03-31T06:09:05;14.10;66.90
9544;DHT22;30418;51.45933468;7.33152330;2023-03-31T06:11:33;14.10;67.70
9544;DHT22;30418;51.45933468;7.33152330;2023-03-31T06:14:02;14.10;66.80
9544;DHT22;30418;51.45933468;7.33152330;2023-03-31T06:16:30;14.10;66.80
9544;DHT22;30418;51.45933468;7.33152330;2023-03-31T06:18:59;14.10;66.70
9544;DHT22;30418;51.45933468;7.33152330;2023-03-31T06:21:29;14.10;66.60
9544;DHT22;30418;51.45933468;7.33152330;2023-03-31T06:23:57;14.10;66.60
9544;DHT22;30418;51.45933468;7.33152330;2023-03-31T06:26:26;14.10;66.60
9544;DHT22;30418;51.45933468;7.33152330;2023-03-31T06:28:55;14.10;66.70
9544;DHT22;30418;51.45933468;7.33152330;2023-03-31T06:31:24;14.10;66.70
9544;DHT22;30418;51.45933468;7.33152330;2023-03-31T06:33:54;14.10;66.70
9544;DHT22;30418;51.45933468;7.33152330;2023-03-31T06:36:22;14.10;66.70
9544;DHT22;30418;51.45933468;7.33152330;2023-03-31T06:38:52;14.10;66.70
9544;DHT22;30418;51.45933468;7.33152330;2023-03-31T06:41:22;14.10;66.90
9544;DHT22;30418;51.45933468;7.33152330;2023-03-31T06:43:50;14.10;67.70
9544;DHT22;30418;51.45933468;7.33152330;2023-03-31T06:46:19;14.10;66.80
9544;DHT22;30418;51.45933468;7.33152330;2023-03-31T06:48:48;14.10;66.80
9544;DHT22;30418;51.45933468;7.33152330;2023-03-31T06:51:17;14.10;67.00
9544;DHT22;30418;51.45933468;7.33152330;2023-03-31T06:53:45;14.00;67.00
9544;DHT22;30418;51.45933468;7.33152330;2023-03-31T06:56:15;14.00;67.00
9544;DHT22;30418;51.45933468;7.33152330;2023-03-31T06:58:44;14.00;67.10
9544;DHT22;30418;51.45933468;7.33152330;2023-03-31T07:01:12;14.00;67.10
9544;DHT22;30418;51.45933468;7.33152330;2023-03-31T07:03:41;14.00;67.10
9544;DHT22;30418;51.45933468;7.33152330;2023-03-31T07:06:10;14.00;67.20
9544;DHT22;30418;51.45933468;7.33152330;2023-03-31T07:08:39;14.00;67.20
9544;DHT22;30418;51.45933468;7.33152330;2023-03-31T07:11:07;14.00;67.20
9544;DHT22;30418;51.45933468;7.33152330;2023-03-31T07:13:38;14.00;67.20
9544;DHT22;30418;51.45933468;7.33152330;2023-03-31T07:16:06;14.00;67.30
9544;DHT22;30418;51.45933468;7.33152330;2023-03-31T07:18:36;14.00;67.30
9544;DHT22;30418;51.45933468;7.33152330;2023-03-31T07:21:08;14.00;67.30
9544;DHT22;30418;51.45933468;7.33152330;2023-03-31T07:23:37;13.90;67.30
9544;DHT22;30418;51.45933468;7.33152330;2023-03-31T07:26:05;13.90;67.30
9544;DHT22;30418;51.45933468;7.33152330;2023-03-31T07:28:34;13.90;67.30
9544;DHT22;30418;51.45933468;7.33152330;2023-03-31T07:31:11;13.90;67.40
9544;DHT22;30418;51.45933468;7.33152330;2023-03-31T07:33:40;14.00;67.70
9544;DHT22;30418;51.45933468;7.33152330;2023-03-31T07:36:09;13.90;67.40
9544;DHT22;30418;51.45933468;7.33152330;2023-03-31T07:38:40;13.90;67.50
9544;DHT22;30418;51.45933468;7.33152330;2023-03-31T07:41:11;13.90;67.60
9544;DHT22;30418;51.45933468;7.33152330;2023-03-31T07:43:40;13.90;67.70
9544;DHT22;30418;51.45933468;7.33152330;2023-03-31T07:46:15;13.90;67.60
9544;DHT22;30418;51.45933468;7.33152330;2023-03-31T07:48:45;13.90;67.70
9544;DHT22;30418;51.45933468;7.33152330;2023-03-31T07:51:15;13.90;67.50
9544;DHT22;30418;51.45933468;7.33152330;2023-03-31T07:53:45;13.90;67.70
9544;DHT22;30418;51.45933468;7.33152330;2023-03-31T07:56:15;13.90;67.80
9544;DHT22;30418;51.45933468;7.33152330;2023-03-31T07:58:44;13.90;67.70
9544;DHT22;30418;51.45933468;7.33152330;2023-03-31T08:01:16;13.90;67.70
9544;DHT22;30418;51.45933468;7.33152330;2023-03-31T08:03:47;13.90;67.80
9544;DHT22;30418;51.45933468;7.33152330;2023-03-31T08:06:17;13.90;67.80
9544;DHT22;30418;51.45933468;7.33152330;2023-03-31T08:08:46;13.90;67.80
9544;DHT22;30418;51.45933468;7.33152330;2023-03-31T08:11:15;13.90;67.70
9544;DHT22;30418;51.45933468;7.33152330;2023-03-31T08:13:44;14.00;67.90
9544;DHT22;30418;51.45933468;7.33152330;2023-03-31T08:16:14;14.00;67.90
9544;DHT22;30418;51.45933468;7.33152330;2023-03-31T08:18:43;13.90;67.80
9544;DHT22;30418;51.45933468;7.33152330;2023-03-31T08:21:12;13.90;67.80
9544;DHT22;30418;51.45933468;7.33152330;2023-03-31T08:23:40;14.00;67.90
9544;DHT22;30418;51.45933468;7.33152330;2023-03-31T08:26:11;13.90;67.90
9544;DHT22;30418;51.45933468;7.33152330;2023-03-31T08:28:44;14.00;68.20
9544;DHT22;30418;51.45933468;7.33152330;2023-03-31T08:31:17;14.00;68.10
9544;DHT22;30418;51.45933468;7.33152330;2023-03-31T08:33:47;14.00;68.20
9544;DHT22;30418;51.45933468;7.33152330;2023-03-31T08:36:15;14.00;68.10
9544;DHT22;30418;51.45933468;7.33152330;2023-03-31T08:38:44;14.00;68.20
9544;DHT22;30418;51.45933468;7.33152330;2023-03-31T08:41:30;14.00;68.20
9544;DHT22;30418;51.45933468;7.33152330;2023-03-31T08:44:05;14.10;68.60
9544;DHT22;30418;51.45933468;7.33152330;2023-03-31T08:46:38;14.10;68.40
9544;DHT22;30418;51.45933468;7.33152330;2023-03-31T08:49:14;14.10;68.40
9544;DHT22;30418;51.45933468;7.33152330;2023-03-31T08:51:46;14.10;68.30
9544;DHT22;30418;51.45933468;7.33152330;2023-03-31T08:54:20;14.10;68.40
9544;DHT22;30418;51.45933468;7.33152330;2023-03-31T08:56:57;14.20;68.60
9544;DHT22;30418;51.45933468;7.33152330;2023-03-31T08:59:28;14.20;68.50
9544;DHT22;30418;51.45933468;7.33152330;2023-03-31T09:02:09;14.20;68.50
9544;DHT22;30418;51.45933468;7.33152330;2023-03-31T09:04:54;14.20;68.40
9544;DHT22;30418;51.45933468;7.33152330;2023-03-31T09:07:39;14.30;68.60
9544;DHT22;30418;51.45933468;7.33152330;2023-03-31T09:10:34;14.20;68.40
9544;DHT22;30418;51.45933468;7.33152330;2023-03-31T09:13:21;14.30;68.70
9544;DHT22;30418;51.45933468;7.33152330;2023-03-31T09:16:00;14.30;68.60
9544;DHT22;30418;51.45933468;7.33152330;2023-03-31T09:18:34;14.30;68.50
9544;DHT22;30418;51.45933468;7.33152330;2023-03-31T09:21:07;14.30;68.50
9544;DHT22;30418;51.45933468;7.33152330;2023-03-31T09:23:45;14.30;68.60
9544;DHT22;30418;51.45933468;7.33152330;2023-03-31T09:26:23;14.30;68.60
9544;DHT22;30418;51.45933468;7.33152330;2023-03-31T09:28:55;14.30;68.60
9544;DHT22;30418;51.45933468;7.33152330;2023-03-31T09:31:25;14.40;68.80
9544;DHT22;30418;51.45933468;7.33152330;2023-03-31T09:33:59;14.30;68.70
9544;DHT22;30418;51.45933468;7.33152330;2023-03-31T09:36:28;14.40;68.90
9544;DHT22;30418;51.45933468;7.33152330;2023-03-31T09:38:59;14.40;68.90
9544;DHT22;30418;51.45933468;7.33152330;2023-03-31T09:41:27;14.40;69.00
9544;DHT22;30418;51.45933468;7.33152330;2023-03-31T09:44:00;14.40;69.00
9544;DHT22;30418;51.45933468;7.33152330;2023-03-31T09:46:30;14.50;69.10
9544;DHT22;30418;51.45933468;7.33152330;2023-03-31T09:49:08;14.50;69.30
9544;DHT22;30418;51.45933468;7.33152330;2023-03-31T09:51:41;14.50;69.30
9544;DHT22;30418;51.45933468;7.33152330;2023-03-31T09:54:18;14.60;69.30
9544;DHT22;30418;51.45933468;7.33152330;2023-03-31T09:56:51;14.60;69.30
9544;DHT22;30418;51.45933468;7.33152330;2023-03-31T09:59:21;14.70;69.20
9544;DHT22;30418;51.45933468;7.33152330;2023-03-31T10:01:52;14.60;69.10
9544;DHT22;30418;51.45933468;7.33152330;2023-03-31T10:04:24;14.70;70.00
9544;DHT22;30418;51.45933468;7.33152330;2023-03-31T10:06:54;14.70;69.10
9544;DHT22;30418;51.45933468;7.33152330;2023-03-31T10:09:25;14.70;69.00
9544;DHT22;30418;51.45933468;7.33152330;2023-03-31T10:11:57;14.70;69.00
9544;DHT22;30418;51.45933468;7.33152330;2023-03-31T10:14:34;14.70;69.10
9544;DHT22;30418;51.45933468;7.33152330;2023-03-31T10:17:13;14.70;69.40
9544;DHT22;30418;51.45933468;7.33152330;2023-03-31T10:19:49;14.70;69.40
9544;DHT22;30418;51.45933468;7.33152330;2023-03-31T10:22:27;14.80;69.70
9544;DHT22;30418;51.45933468;7.33152330;2023-03-31T10:25:08;14.80;69.80
9544;DHT22;30418;51.45933468;7.33152330;2023-03-31T10:27:42;14.80;70.00
9544;DHT22;30418;51.45933468;7.33152330;2023-03-31T10:30:19;14.80;69.80
9544;DHT22;30418;51.45933468;7.33152330;2023-03-31T10:32:49;14.90;70.00
9544;DHT22;30418;51.45933468;7.33152330;2023-03-31T10:35:25;14.90;69.70
9544;DHT22;30418;51.45933468;7.33152330;2023-03-31T10:37:55;14.90;69.90
9544;DHT22;30418;51.45933468;7.33152330;2023-03-31T10:40:27;14.90;69.80
9544;DHT22;30418;51.45933468;7.33152330;2023-03-31T10:43:02;15.00;69.90
9544;DHT22;30418;51.45933468;7.33152330;2023-03-31T10:45:37;15.00;69.80
9544;DHT22;30418;51.45933468;7.33152330;2023-03-31T10:48:17;15.00;69.40
9544;DHT22;30418;51.45933468;7.33152330;2023-03-31T10:50:48;15.00;69.30
9544;DHT22;30418;51.45933468;7.33152330;2023-03-31T10:53:17;15.00;69.10
9544;DHT22;30418;51.45933468;7.33152330;2023-03-31T10:56:07;14.90;69.20
9544;DHT22;30418;51.45933468;7.33152330;2023-03-31T10:58:57;15.00;69.70
9544;DHT22;30418;51.45933468;7.33152330;2023-03-31T11:01:51;15.00;69.80
9544;DHT22;30418;51.45933468;7.33152330;2023-03-31T11:04:43;15.00;70.00
9544;DHT22;30418;51.45933468;7.33152330;2023-03-31T11:07:41;15.10;70.50
9544;DHT22;30418;51.45933468;7.33152330;2023-03-31T11:10:35;15.10;70.50
9544;DHT22;30418;51.45933468;7.33152330;2023-03-31T11:13:17;15.20;70.60
9544;DHT22;30418;51.45933468;7.33152330;2023-03-31T11:15:53;15.30;70.90
9544;DHT22;30418;51.45933468;7.33152330;2023-03-31T11:18:45;15.40;71.20
9544;DHT22;30418;51.45933468;7.33152330;2023-03-31T11:21:26;15.50;70.90
9544;DHT22;30418;51.45933468;7.33152330;2023-03-31T11:24:13;15.60;70.20
9544;DHT22;30418;51.45933468;7.33152330;2023-03-31T11:26:54;15.70;70.00
9544;DHT22;30418;51.45933468;7.33152330;2023-03-31T11:29:32;15.80;69.60
9544;DHT22;30418;51.45933468;7.33152330;2023-03-31T11:35:36;15.90;68.50
9544;DHT22;30418;51.45933468;7.33152330;2023-03-31T11:38:24;15.80;67.80
9544;DHT22;30418;51.45933468;7.33152330;2023-03-31T11:41:04;15.70;67.10
9544;DHT22;30418;51.45933468;7.33152330;2023-03-31T11:43:39;15.60;66.90
9544;DHT22;30418;51.45933468;7.33152330;2023-03-31T11:46:14;15.60;66.80
9544;DHT22;30418;51.45933468;7.33152330;2023-03-31T11:48:49;15.50;66.70
9544;DHT22;30418;51.45933468;7.33152330;2023-03-31T11:51:26;15.30;66.70
9544;DHT22;30418;51.45933468;7.33152330;2023-03-31T11:53:58;15.30;66.90
9544;DHT22;30418;51.45933468;7.33152330;2023-03-31T11:56:32;15.20;67.00
9544;DHT22;30418;51.45933468;7.33152330;2023-03-31T11:59:03;15.10;67.10
9544;DHT22;30418;51.45933468;7.33152330;2023-03-31T12:01:39;15.00;67.20
9544;DHT22;30418;51.45933468;7.33152330;2023-03-31T12:04:18;14.90;67.50
9544;DHT22;30418;51.45933468;7.33152330;2023-03-31T12:07:00;15.00;68.20
9544;DHT22;30418;51.45933468;7.33152330;2023-03-31T12:09:36;14.90;68.60
9544;DHT22;30418;51.45933468;7.33152330;2023-03-31T12:12:11;14.90;69.10
9544;DHT22;30418;51.45933468;7.33152330;2023-03-31T12:14:44;15.00;69.70
9544;DHT22;30418;51.45933468;7.33152330;2023-03-31T12:17:18;15.00;70.00
9544;DHT22;30418;51.45933468;7.33152330;2023-03-31T12:19:50;15.10;70.20
9544;DHT22;30418;51.45933468;7.33152330;2023-03-31T12:22:24;15.10;70.50
9544;DHT22;30418;51.45933468;7.33152330;2023-03-31T12:24:54;15.20;70.60
9544;DHT22;30418;51.45933468;7.33152330;2023-03-31T12:27:26;15.20;70.40
9544;DHT22;30418;51.45933468;7.33152330;2023-03-31T12:30:00;15.30;70.40
9544;DHT22;30418;51.45933468;7.33152330;2023-03-31T12:32:33;15.30;70.20
9544;DHT22;30418;51.45933468;7.33152330;2023-03-31T12:35:07;15.40;70.30
9544;DHT22;30418;51.45933468;7.33152330;2023-03-31T12:41:02;15.50;70.50
9544;DHT22;30418;51.45933468;7.33152330;2023-03-31T12:43:53;15.50;70.00
9544;DHT22;30418;51.45933468;7.33152330;2023-03-31T12:46:49;15.60;69.70
9544;DHT22;30418;51.45933468;7.33152330;2023-03-31T12:49:51;15.60;69.40
9544;DHT22;30418;51.45933468;7.33152330;2023-03-31T12:52:32;15.60;69.10
9544;DHT22;30418;51.45933468;7.33152330;2023-03-31T12:55:30;15.60;69.10
9544;DHT22;30418;51.45933468;7.33152330;2023-03-31T12:58:35;15.60;69.00
9544;DHT22;30418;51.45933468;7.33152330;2023-03-31T13:01:09;15.70;69.10
9544;DHT22;30418;51.45933468;7.33152330;2023-03-31T13:03:48;15.60;68.90
9544;DHT22;30418;51.45933468;7.33152330;2023-03-31T13:09:55;15.60;69.20
9544;DHT22;30418;51.45933468;7.33152330;2023-03-31T13:12:25;15.50;69.20
9544;DHT22;30418;51.45933468;7.33152330;2023-03-31T13:14:57;15.50;69.00
9544;DHT22;30418;51.45933468;7.33152330;2023-03-31T13:17:30;15.50;69.10
9544;DHT22;30418;51.45933468;7.33152330;2023-03-31T13:20:24;15.50;69.40
9544;DHT22;30418;51.45933468;7.33152330;2023-03-31T13:23:06;15.50;69.90
9544;DHT22;30418;51.45933468;7.33152330;2023-03-31T13:25:48;15.60;70.00
9544;DHT22;30418;51.45933468;7.33152330;2023-03-31T13:28:24;15.60;70.10
9544;DHT22;30418;51.45933468;7.33152330;2023-03-31T13:30:57;15.60;70.30
9544;DHT22;30418;51.45933468;7.33152330;2023-03-31T13:33:35;15.70;70.40
9544;DHT22;30418;51.45933468;7.33152330;2023-03-31T13:39:41;15.80;70.20
9544;DHT22;30418;51.45933468;7.33152330;2023-03-31T13:45:31;15.90;69.70
9544;DHT22;30418;51.45933468;7.33152330;2023-03-31T13:48:50;15.90;69.40
9544;DHT22;30418;51.45933468;7.33152330;2023-03-31T13:51:28;15.90;69.30
9544;DHT22;30418;51.45933468;7.33152330;2023-03-31T13:54:34;15.90;69.30
9544;DHT22;30418;51.45933468;7.33152330;2023-03-31T13:57:30;15.90;69.50
9544;DHT22;30418;51.45933468;7.33152330;2023-03-31T14:00:36;15.90;69.50
9544;DHT22;30418;51.45933468;7.33152330;2023-03-31T14:03:19;15.90;69.70
9544;DHT22;30418;51.45933468;7.33152330;2023-03-31T14:05:58;16.00;69.80
9544;DHT22;30418;51.45933468;7.33152330;2023-03-31T14:08:38;16.00;69.70
9544;DHT22;30418;51.45933468;7.33152330;2023-03-31T14:11:19;16.00;69.50
9544;DHT22;30418;51.45933468;7.33152330;2023-03-31T14:13:59;16.00;69.50
9544;DHT22;30418;51.45933468;7.33152330;2023-03-31T14:16:31;16.00;69.60
9544;DHT22;30418;51.45933468;7.33152330;2023-03-31T14:19:26;16.00;69.50
9544;DHT22;30418;51.45933468;7.33152330;2023-03-31T14:22:17;16.10;69.30
9544;DHT22;30418;51.45933468;7.33152330;2023-03-31T14:24:54;16.10;69.10
9544;DHT22;30418;51.45933468;7.33152330;2023-03-31T14:27:40;16.00;68.90
9544;DHT22;30418;51.45933468;7.33152330;2023-03-31T14:30:22;16.00;68.70
9544;DHT22;30418;51.45933468;7.33152330;2023-03-31T14:33:03;16.00;68.30
9544;DHT22;30418;51.45933468;7.33152330;2023-03-31T14:35:43;16.00;68.30
9544;DHT22;30418;51.45933468;7.33152330;2023-03-31T14:38:21;16.00;68.30
9544;DHT22;30418;51.45933468;7.33152330;2023-03-31T14:40:52;16.00;68.00
9544;DHT22;30418;51.45933468;7.33152330;2023-03-31T14:43:25;16.00;67.80
9544;DHT22;30418;51.45933468;7.33152330;2023-03-31T14:45:58;16.00;67.60
9544;DHT22;30418;51.45933468;7.33152330;2023-03-31T14:48:28;16.00;67.50